sensor_id;sensor_type;location;lat;lon;timestamp;P1;durP1;ratioP1;P2;durP2;ratioP2
12437;SDS011;6283;51.330;12.374;2022-07-01T00:02:04;13.63;;;12.30;;
12437;SDS011;6283;51.330;12.374;2022-07-01T00:04:30;13.75;;;11.55;;
12437;SDS011;6283;51.330;12.374;2022-07-01T00:06:56;13.27;;;11.98;;
12437;SDS011;6283;51.330;12.374;2022-07-01T00:09:22;13.68;;;12.27;;
12437;SDS011;6283;51.330;12.374;2022-07-01T00:11:48;12.82;;;11.65;;
12437;SDS011;6283;51.330;12.374;2022-07-01T00:14:13;13.55;;;12.27;;
12437;SDS011;6283;51.330;12.374;2022-07-01T00:16:39;13.25;;;11.95;;
12437;SDS011;6283;51.330;12.374;2022-07-01T00:19:05;14.07;;;12.68;;
12437;SDS011;6283;51.330;12.374;2022-07-01T00:21:30;13.57;;;12.27;;
12437;SDS011;6283;51.330;12.374;2022-07-01T00:23:57;12.60;;;11.05;;
12437;SDS011;6283;51.330;12.374;2022-07-01T00:26:22;13.40;;;12.02;;
12437;SDS011;6283;51.330;12.374;2022-07-01T00:28:48;14.05;;;11.50;;
12437;SDS011;6283;51.330;12.374;2022-07-01T00:31:14;13.40;;;12.07;;
12437;SDS011;6283;51.330;12.374;2022-07-01T00:33:39;17.73;;;12.27;;
12437;SDS011;6283;51.330;12.374;2022-07-01T00:36:05;12.88;;;11.70;;
12437;SDS011;6283;51.330;12.374;2022-07-01T00:38:30;11.75;;;10.57;;
12437;SDS011;6283;51.330;12.374;2022-07-01T00:40:56;13.35;;;11.98;;
12437;SDS011;6283;51.330;12.374;2022-07-01T00:43:24;15.05;;;11.30;;
12437;SDS011;6283;51.330;12.374;2022-07-01T00:45:50;12.40;;;11.20;;
12437;SDS011;6283;51.330;12.374;2022-07-01T00:48:18;11.68;;;10.68;;
12437;SDS011;6283;51.330;12.374;2022-07-01T00:50:46;12.60;;;11.30;;
12437;SDS011;6283;51.330;12.374;2022-07-01T00:53:15;13.70;;;12.40;;
12437;SDS011;6283;51.330;12.374;2022-07-01T00:55:41;12.50;;;11.30;;
12437;SDS011;6283;51.330;12.374;2022-07-01T00:58:07;13.13;;;11.50;;
12437;SDS011;6283;51.330;12.374;2022-07-01T01:00:34;12.75;;;10.63;;
12437;SDS011;6283;51.330;12.374;2022-07-01T01:03:01;11.70;;;10.60;;
12437;SDS011;6283;51.330;12.374;2022-07-01T01:05:27;11.57;;;10.55;;
12437;SDS011;6283;51.330;12.374;2022-07-01T01:07:52;12.30;;;11.20;;
12437;SDS011;6283;51.330;12.374;2022-07-01T01:10:18;11.50;;;10.35;;
12437;SDS011;6283;51.330;12.374;2022-07-01T01:12:44;11.55;;;10.45;;
12437;SDS011;6283;51.330;12.374;2022-07-01T01:15:10;13.05;;;10.85;;
12437;SDS011;6283;51.330;12.374;2022-07-01T01:17:42;12.30;;;10.70;;
12437;SDS011;6283;51.330;12.374;2022-07-01T01:20:07;12.63;;;10.57;;
12437;SDS011;6283;51.330;12.374;2022-07-01T01:22:33;12.85;;;10.75;;
12437;SDS011;6283;51.330;12.374;2022-07-01T01:24:59;11.13;;;10.13;;
12437;SDS011;6283;51.330;12.374;2022-07-01T01:27:25;11.25;;;10.13;;
12437;SDS011;6283;51.330;12.374;2022-07-01T01:29:50;11.60;;;10.45;;
12437;SDS011;6283;51.330;12.374;2022-07-01T01:32:16;11.60;;;10.60;;
12437;SDS011;6283;51.330;12.374;2022-07-01T01:34:41;11.55;;;10.35;;
12437;SDS011;6283;51.330;12.374;2022-07-01T01:37:07;10.65;;;9.65;;
12437;SDS011;6283;51.330;12.374;2022-07-01T01:39:33;10.75;;;9.80;;
12437;SDS011;6283;51.330;12.374;2022-07-01T01:42:02;13.07;;;9.50;;
12437;SDS011;6283;51.330;12.374;2022-07-01T01:44:29;11.88;;;9.55;;
12437;SDS011;6283;51.330;12.374;2022-07-01T01:46:55;11.82;;;10.63;;
12437;SDS011;6283;51.330;12.374;2022-07-01T01:49:20;10.43;;;9.43;;
12437;SDS011;6283;51.330;12.374;2022-07-01T01:51:46;11.65;;;9.63;;
12437;SDS011;6283;51.330;12.374;2022-07-01T01:54:12;14.43;;;10.95;;
12437;SDS011;6283;51.330;12.374;2022-07-01T01:56:37;9.90;;;9.00;;
12437;SDS011;6283;51.330;12.374;2022-07-01T01:59:03;10.50;;;9.50;;
12437;SDS011;6283;51.330;12.374;2022-07-01T02:01:29;11.23;;;9.70;;
12437;SDS011;6283;51.330;12.374;2022-07-01T02:03:55;10.57;;;9.48;;
12437;SDS011;6283;51.330;12.374;2022-07-01T02:06:21;13.02;;;10.05;;
12437;SDS011;6283;51.330;12.374;2022-07-01T02:08:47;10.75;;;9.68;;
12437;SDS011;6283;51.330;12.374;2022-07-01T02:11:13;10.38;;;9.43;;
12437;SDS011;6283;51.330;12.374;2022-07-01T02:13:39;9.85;;;8.82;;
12437;SDS011;6283;51.330;12.374;2022-07-01T02:16:05;10.30;;;9.25;;
12437;SDS011;6283;51.330;12.374;2022-07-01T02:18:31;10.60;;;9.45;;
12437;SDS011;6283;51.330;12.374;2022-07-01T02:20:57;9.57;;;8.68;;
12437;SDS011;6283;51.330;12.374;2022-07-01T02:23:23;10.55;;;9.55;;
12437;SDS011;6283;51.330;12.374;2022-07-01T02:25:49;11.05;;;9.65;;
12437;SDS011;6283;51.330;12.374;2022-07-01T02:28:15;9.70;;;8.75;;
12437;SDS011;6283;51.330;12.374;2022-07-01T02:30:41;11.25;;;9.85;;
12437;SDS011;6283;51.330;12.374;2022-07-01T02:33:07;10.32;;;9.30;;
12437;SDS011;6283;51.330;12.374;2022-07-01T02:35:34;10.90;;;9.80;;
12437;SDS011;6283;51.330;12.374;2022-07-01T02:38:02;10.85;;;9.73;;
12437;SDS011;6283;51.330;12.374;2022-07-01T02:40:28;9.85;;;8.88;;
12437;SDS011;6283;51.330;12.374;2022-07-01T02:42:54;10.32;;;8.93;;
12437;SDS011;6283;51.330;12.374;2022-07-01T02:45:20;10.13;;;9.15;;
12437;SDS011;6283;51.330;12.374;2022-07-01T02:47:46;11.55;;;8.98;;
12437;SDS011;6283;51.330;12.374;2022-07-01T02:50:12;9.95;;;8.90;;
12437;SDS011;6283;51.330;12.374;2022-07-01T02:52:39;11.35;;;9.40;;
12437;SDS011;6283;51.330;12.374;2022-07-01T02:55:07;10.90;;;9.85;;
12437;SDS011;6283;51.330;12.374;2022-07-01T02:57:34;10.85;;;9.85;;
12437;SDS011;6283;51.330;12.374;2022-07-01T03:00:00;11.13;;;10.07;;
12437;SDS011;6283;51.330;12.374;2022-07-01T03:02:25;10.77;;;9.65;;
12437;SDS011;6283;51.330;12.374;2022-07-01T03:04:52;10.75;;;9.65;;
12437;SDS011;6283;51.330;12.374;2022-07-01T03:07:19;12.10;;;10.23;;
12437;SDS011;6283;51.330;12.374;2022-07-01T03:09:46;10.45;;;9.40;;
12437;SDS011;6283;51.330;12.374;2022-07-01T03:12:12;13.68;;;9.45;;
12437;SDS011;6283;51.330;12.374;2022-07-01T03:17:23;11.23;;;8.60;;
12437;SDS011;6283;51.330;12.374;2022-07-01T03:19:49;10.32;;;9.13;;
12437;SDS011;6283;51.330;12.374;2022-07-01T03:22:19;9.32;;;8.30;;
12437;SDS011;6283;51.330;12.374;2022-07-01T03:24:46;8.85;;;7.95;;
12437;SDS011;6283;51.330;12.374;2022-07-01T03:27:12;8.32;;;7.53;;
12437;SDS011;6283;51.330;12.374;2022-07-01T03:29:38;9.27;;;7.63;;
12437;SDS011;6283;51.330;12.374;2022-07-01T03:32:03;9.48;;;8.35;;
12437;SDS011;6283;51.330;12.374;2022-07-01T03:34:29;8.85;;;7.95;;
12437;SDS011;6283;51.330;12.374;2022-07-01T03:36:55;11.32;;;8.18;;
12437;SDS011;6283;51.330;12.374;2022-07-01T03:39:20;9.20;;;8.30;;
12437;SDS011;6283;51.330;12.374;2022-07-01T03:41:46;9.77;;;8.50;;
12437;SDS011;6283;51.330;12.374;2022-07-01T03:44:12;10.52;;;8.70;;
12437;SDS011;6283;51.330;12.374;2022-07-01T03:46:37;10.88;;;9.30;;
12437;SDS011;6283;51.330;12.374;2022-07-01T03:49:03;10.88;;;8.98;;
12437;SDS011;6283;51.330;12.374;2022-07-01T03:51:32;12.05;;;9.02;;
12437;SDS011;6283;51.330;12.374;2022-07-01T03:53:58;14.85;;;8.90;;
12437;SDS011;6283;51.330;12.374;2022-07-01T03:56:42;10.88;;;9.68;;
12437;SDS011;6283;51.330;12.374;2022-07-01T03:59:08;13.80;;;10.25;;
12437;SDS011;6283;51.330;12.374;2022-07-01T04:01:33;12.00;;;10.80;;
12437;SDS011;6283;51.330;12.374;2022-07-01T04:03:59;11.77;;;10.50;;
12437;SDS011;6283;51.330;12.374;2022-07-01T04:06:24;12.15;;;10.77;;
12437;SDS011;6283;51.330;12.374;2022-07-01T04:08:50;13.57;;;11.40;;
12437;SDS011;6283;51.330;12.374;2022-07-01T04:11:16;12.55;;;11.30;;
12437;SDS011;6283;51.330;12.374;2022-07-01T04:13:42;12.55;;;10.32;;
12437;SDS011;6283;51.330;12.374;2022-07-01T04:16:15;12.30;;;10.77;;
12437;SDS011;6283;51.330;12.374;2022-07-01T04:18:47;14.25;;;11.85;;
12437;SDS011;6283;51.330;12.374;2022-07-01T04:21:14;12.70;;;11.50;;
12437;SDS011;6283;51.330;12.374;2022-07-01T04:23:58;13.95;;;11.95;;
12437;SDS011;6283;51.330;12.374;2022-07-01T04:26:24;12.75;;;11.45;;
12437;SDS011;6283;51.330;12.374;2022-07-01T04:28:53;12.43;;;11.25;;
12437;SDS011;6283;51.330;12.374;2022-07-01T04:31:19;14.57;;;11.93;;
12437;SDS011;6283;51.330;12.374;2022-07-01T04:33:46;14.00;;;12.55;;
12437;SDS011;6283;51.330;12.374;2022-07-01T04:36:13;13.02;;;11.70;;
12437;SDS011;6283;51.330;12.374;2022-07-01T04:38:39;12.52;;;11.32;;
12437;SDS011;6283;51.330;12.374;2022-07-01T04:41:04;16.65;;;11.88;;
12437;SDS011;6283;51.330;12.374;2022-07-01T04:43:49;16.35;;;12.43;;
12437;SDS011;6283;51.330;12.374;2022-07-01T04:46:14;16.90;;;12.48;;
12437;SDS011;6283;51.330;12.374;2022-07-01T04:48:40;16.02;;;14.30;;
12437;SDS011;6283;51.330;12.374;2022-07-01T04:51:06;15.07;;;13.57;;
12437;SDS011;6283;51.330;12.374;2022-07-01T04:53:31;16.20;;;14.63;;
12437;SDS011;6283;51.330;12.374;2022-07-01T04:55:57;15.07;;;13.68;;
12437;SDS011;6283;51.330;12.374;2022-07-01T04:58:23;17.30;;;15.65;;
12437;SDS011;6283;51.330;12.374;2022-07-01T05:00:49;17.17;;;15.63;;
12437;SDS011;6283;51.330;12.374;2022-07-01T05:03:15;17.27;;;15.52;;
12437;SDS011;6283;51.330;12.374;2022-07-01T05:05:41;17.60;;;15.65;;
12437;SDS011;6283;51.330;12.374;2022-07-01T05:08:07;16.88;;;15.18;;
12437;SDS011;6283;51.330;12.374;2022-07-01T05:10:33;19.25;;;17.00;;
12437;SDS011;6283;51.330;12.374;2022-07-01T05:12:58;16.88;;;15.27;;
12437;SDS011;6283;51.330;12.374;2022-07-01T05:15:24;21.08;;;18.90;;
12437;SDS011;6283;51.330;12.374;2022-07-01T05:17:50;20.92;;;18.55;;
12437;SDS011;6283;51.330;12.374;2022-07-01T05:20:34;22.35;;;20.00;;
12437;SDS011;6283;51.330;12.374;2022-07-01T05:23:18;23.73;;;21.25;;
12437;SDS011;6283;51.330;12.374;2022-07-01T05:25:43;23.52;;;21.02;;
12437;SDS011;6283;51.330;12.374;2022-07-01T05:28:09;26.00;;;22.92;;
12437;SDS011;6283;51.330;12.374;2022-07-01T05:30:34;26.38;;;22.23;;
12437;SDS011;6283;51.330;12.374;2022-07-01T05:33:00;24.35;;;21.55;;
12437;SDS011;6283;51.330;12.374;2022-07-01T05:35:26;24.73;;;22.08;;
12437;SDS011;6283;51.330;12.374;2022-07-01T05:37:51;28.40;;;22.52;;
12437;SDS011;6283;51.330;12.374;2022-07-01T05:40:17;26.20;;;22.02;;
12437;SDS011;6283;51.330;12.374;2022-07-01T05:42:42;24.42;;;21.83;;
12437;SDS011;6283;51.330;12.374;2022-07-01T05:45:08;28.42;;;23.27;;
12437;SDS011;6283;51.330;12.374;2022-07-01T05:47:34;25.00;;;21.77;;
12437;SDS011;6283;51.330;12.374;2022-07-01T05:49:59;26.08;;;21.10;;
12437;SDS011;6283;51.330;12.374;2022-07-01T05:52:25;23.80;;;21.25;;
12437;SDS011;6283;51.330;12.374;2022-07-01T05:54:51;23.58;;;20.98;;
12437;SDS011;6283;51.330;12.374;2022-07-01T05:57:16;24.38;;;20.80;;
12437;SDS011;6283;51.330;12.374;2022-07-01T05:59:42;24.08;;;20.88;;
12437;SDS011;6283;51.330;12.374;2022-07-01T06:02:07;25.02;;;20.90;;
12437;SDS011;6283;51.330;12.374;2022-07-01T06:04:33;25.70;;;22.40;;
12437;SDS011;6283;51.330;12.374;2022-07-01T06:06:59;22.58;;;20.05;;
12437;SDS011;6283;51.330;12.374;2022-07-01T06:09:25;21.83;;;19.50;;
12437;SDS011;6283;51.330;12.374;2022-07-01T06:11:50;22.40;;;20.00;;
12437;SDS011;6283;51.330;12.374;2022-07-01T06:14:16;23.60;;;21.10;;
12437;SDS011;6283;51.330;12.374;2022-07-01T06:16:42;22.55;;;20.10;;
12437;SDS011;6283;51.330;12.374;2022-07-01T06:19:07;23.00;;;20.58;;
12437;SDS011;6283;51.330;12.374;2022-07-01T06:21:33;23.27;;;20.08;;
12437;SDS011;6283;51.330;12.374;2022-07-01T06:23:58;23.25;;;20.75;;
12437;SDS011;6283;51.330;12.374;2022-07-01T06:26:24;22.98;;;20.60;;
12437;SDS011;6283;51.330;12.374;2022-07-01T06:28:50;22.25;;;19.95;;
12437;SDS011;6283;51.330;12.374;2022-07-01T06:31:16;21.88;;;19.27;;
12437;SDS011;6283;51.330;12.374;2022-07-01T06:33:41;22.45;;;20.17;;
12437;SDS011;6283;51.330;12.374;2022-07-01T06:36:07;23.38;;;19.38;;
12437;SDS011;6283;51.330;12.374;2022-07-01T06:38:32;23.27;;;19.30;;
12437;SDS011;6283;51.330;12.374;2022-07-01T06:40:58;20.58;;;16.98;;
12437;SDS011;6283;51.330;12.374;2022-07-01T06:43:42;18.13;;;15.90;;
12437;SDS011;6283;51.330;12.374;2022-07-01T06:46:08;14.45;;;12.90;;
12437;SDS011;6283;51.330;12.374;2022-07-01T06:48:34;14.43;;;12.52;;
12437;SDS011;6283;51.330;12.374;2022-07-01T06:51:00;12.05;;;10.95;;
12437;SDS011;6283;51.330;12.374;2022-07-01T06:53:29;14.32;;;11.05;;
12437;SDS011;6283;51.330;12.374;2022-07-01T06:55:54;12.30;;;11.02;;
12437;SDS011;6283;51.330;12.374;2022-07-01T06:58:21;12.50;;;10.80;;
12437;SDS011;6283;51.330;12.374;2022-07-01T07:00:47;23.85;;;11.25;;
12437;SDS011;6283;51.330;12.374;2022-07-01T07:03:12;12.55;;;10.85;;
12437;SDS011;6283;51.330;12.374;2022-07-01T07:05:38;11.20;;;9.55;;
12437;SDS011;6283;51.330;12.374;2022-07-01T07:08:03;12.68;;;10.25;;
12437;SDS011;6283;51.330;12.374;2022-07-01T07:10:29;10.90;;;9.80;;
12437;SDS011;6283;51.330;12.374;2022-07-01T07:12:55;10.63;;;9.07;;
12437;SDS011;6283;51.330;12.374;2022-07-01T07:15:21;11.95;;;9.80;;
12437;SDS011;6283;51.330;12.374;2022-07-01T07:17:47;9.70;;;8.68;;
12437;SDS011;6283;51.330;12.374;2022-07-01T07:20:12;9.82;;;8.93;;
12437;SDS011;6283;51.330;12.374;2022-07-01T07:22:38;10.38;;;9.40;;
12437;SDS011;6283;51.330;12.374;2022-07-01T07:25:03;9.20;;;8.32;;
12437;SDS011;6283;51.330;12.374;2022-07-01T07:27:29;9.20;;;7.47;;
12437;SDS011;6283;51.330;12.374;2022-07-01T07:29:55;10.10;;;7.40;;
12437;SDS011;6283;51.330;12.374;2022-07-01T07:32:21;8.88;;;7.65;;
12437;SDS011;6283;51.330;12.374;2022-07-01T07:34:46;8.05;;;6.97;;
12437;SDS011;6283;51.330;12.374;2022-07-01T07:37:12;7.72;;;6.93;;
12437;SDS011;6283;51.330;12.374;2022-07-01T07:39:38;8.52;;;7.47;;
12437;SDS011;6283;51.330;12.374;2022-07-01T07:42:03;8.30;;;7.28;;
12437;SDS011;6283;51.330;12.374;2022-07-01T07:44:30;7.90;;;7.10;;
12437;SDS011;6283;51.330;12.374;2022-07-01T07:46:56;7.10;;;6.20;;
12437;SDS011;6283;51.330;12.374;2022-07-01T07:49:22;7.18;;;6.50;;
12437;SDS011;6283;51.330;12.374;2022-07-01T07:51:49;9.75;;;6.53;;
12437;SDS011;6283;51.330;12.374;2022-07-01T07:54:15;8.50;;;6.53;;
12437;SDS011;6283;51.330;12.374;2022-07-01T07:56:40;8.30;;;7.10;;
12437;SDS011;6283;51.330;12.374;2022-07-01T07:59:06;8.35;;;7.65;;
12437;SDS011;6283;51.330;12.374;2022-07-01T08:01:32;8.23;;;7.03;;
12437;SDS011;6283;51.330;12.374;2022-07-01T08:03:57;8.82;;;7.97;;
12437;SDS011;6283;51.330;12.374;2022-07-01T08:06:23;10.02;;;8.70;;
12437;SDS011;6283;51.330;12.374;2022-07-01T08:08:49;9.93;;;8.93;;
12437;SDS011;6283;51.330;12.374;2022-07-01T08:11:14;9.35;;;8.48;;
12437;SDS011;6283;51.330;12.374;2022-07-01T08:13:40;11.10;;;9.07;;
12437;SDS011;6283;51.330;12.374;2022-07-01T08:16:05;12.13;;;9.98;;
12437;SDS011;6283;51.330;12.374;2022-07-01T08:18:32;12.30;;;10.63;;
12437;SDS011;6283;51.330;12.374;2022-07-01T08:20:57;12.23;;;11.02;;
12437;SDS011;6283;51.330;12.374;2022-07-01T08:23:23;14.63;;;12.00;;
12437;SDS011;6283;51.330;12.374;2022-07-01T08:25:49;13.88;;;11.52;;
12437;SDS011;6283;51.330;12.374;2022-07-01T08:28:15;12.15;;;10.88;;
12437;SDS011;6283;51.330;12.374;2022-07-01T08:30:41;12.00;;;10.77;;
12437;SDS011;6283;51.330;12.374;2022-07-01T08:33:07;11.73;;;10.50;;
12437;SDS011;6283;51.330;12.374;2022-07-01T08:35:33;11.73;;;10.52;;
12437;SDS011;6283;51.330;12.374;2022-07-01T08:37:59;13.82;;;11.75;;
12437;SDS011;6283;51.330;12.374;2022-07-01T08:40:28;14.38;;;11.90;;
12437;SDS011;6283;51.330;12.374;2022-07-01T08:42:58;14.70;;;11.73;;
12437;SDS011;6283;51.330;12.374;2022-07-01T08:45:26;16.05;;;12.25;;
12437;SDS011;6283;51.330;12.374;2022-07-01T08:47:53;16.42;;;13.55;;
12437;SDS011;6283;51.330;12.374;2022-07-01T08:50:22;17.15;;;13.88;;
12437;SDS011;6283;51.330;12.374;2022-07-01T08:52:50;18.33;;;15.80;;
12437;SDS011;6283;51.330;12.374;2022-07-01T08:55:16;22.20;;;16.67;;
12437;SDS011;6283;51.330;12.374;2022-07-01T08:57:43;20.23;;;15.90;;
12437;SDS011;6283;51.330;12.374;2022-07-01T09:00:08;19.30;;;16.13;;
12437;SDS011;6283;51.330;12.374;2022-07-01T09:02:50;22.85;;;16.58;;
12437;SDS011;6283;51.330;12.374;2022-07-01T09:05:17;19.42;;;15.82;;
12437;SDS011;6283;51.330;12.374;2022-07-01T09:07:43;22.20;;;17.08;;
12437;SDS011;6283;51.330;12.374;2022-07-01T09:10:12;22.00;;;17.13;;
12437;SDS011;6283;51.330;12.374;2022-07-01T09:12:41;27.73;;;19.23;;
12437;SDS011;6283;51.330;12.374;2022-07-01T09:17:46;26.57;;;19.43;;
12437;SDS011;6283;51.330;12.374;2022-07-01T09:20:28;27.52;;;19.92;;
12437;SDS011;6283;51.330;12.374;2022-07-01T09:22:59;29.65;;;21.38;;
12437;SDS011;6283;51.330;12.374;2022-07-01T09:25:27;29.53;;;21.13;;
12437;SDS011;6283;51.330;12.374;2022-07-01T09:30:51;27.17;;;19.50;;
12437;SDS011;6283;51.330;12.374;2022-07-01T09:35:51;25.50;;;18.98;;
12437;SDS011;6283;51.330;12.374;2022-07-01T09:38:21;26.90;;;19.27;;
12437;SDS011;6283;51.330;12.374;2022-07-01T09:40:52;27.80;;;17.80;;
12437;SDS011;6283;51.330;12.374;2022-07-01T09:43:26;23.17;;;17.88;;
12437;SDS011;6283;51.330;12.374;2022-07-01T09:46:06;21.92;;;17.58;;
12437;SDS011;6283;51.330;12.374;2022-07-01T09:51:01;21.27;;;16.10;;
12437;SDS011;6283;51.330;12.374;2022-07-01T09:53:28;19.73;;;15.35;;
12437;SDS011;6283;51.330;12.374;2022-07-01T09:55:54;16.17;;;13.20;;
12437;SDS011;6283;51.330;12.374;2022-07-01T09:58:20;16.80;;;13.85;;
12437;SDS011;6283;51.330;12.374;2022-07-01T10:00:45;16.58;;;13.75;;
12437;SDS011;6283;51.330;12.374;2022-07-01T10:03:12;17.98;;;13.63;;
12437;SDS011;6283;51.330;12.374;2022-07-01T10:10:53;15.13;;;13.23;;
12437;SDS011;6283;51.330;12.374;2022-07-01T10:13:35;15.03;;;12.73;;
12437;SDS011;6283;51.330;12.374;2022-07-01T10:16:01;12.75;;;10.60;;
12437;SDS011;6283;51.330;12.374;2022-07-01T10:18:28;13.03;;;10.03;;
12437;SDS011;6283;51.330;12.374;2022-07-01T10:20:55;9.07;;;8.17;;
12437;SDS011;6283;51.330;12.374;2022-07-01T10:23:23;11.23;;;8.33;;
12437;SDS011;6283;51.330;12.374;2022-07-01T10:25:50;8.18;;;7.00;;
12437;SDS011;6283;51.330;12.374;2022-07-01T10:28:27;8.33;;;7.33;;
12437;SDS011;6283;51.330;12.374;2022-07-01T10:41:30;7.90;;;6.18;;
12437;SDS011;6283;51.330;12.374;2022-07-01T10:44:04;7.25;;;6.00;;
12437;SDS011;6283;51.330;12.374;2022-07-01T10:49:18;5.20;;;4.77;;
12437;SDS011;6283;51.330;12.374;2022-07-01T10:51:45;5.37;;;4.87;;
12437;SDS011;6283;51.330;12.374;2022-07-01T11:04:55;6.25;;;4.90;;
12437;SDS011;6283;51.330;12.374;2022-07-01T11:07:29;5.45;;;4.88;;
12437;SDS011;6283;51.330;12.374;2022-07-01T11:09:56;5.15;;;4.75;;
12437;SDS011;6283;51.330;12.374;2022-07-01T11:12:22;5.57;;;4.55;;
12437;SDS011;6283;51.330;12.374;2022-07-01T11:14:48;4.68;;;4.25;;
12437;SDS011;6283;51.330;12.374;2022-07-01T11:17:15;4.47;;;4.00;;
12437;SDS011;6283;51.330;12.374;2022-07-01T11:19:48;4.13;;;3.83;;
12437;SDS011;6283;51.330;12.374;2022-07-01T11:22:27;4.65;;;4.25;;
12437;SDS011;6283;51.330;12.374;2022-07-01T11:24:59;4.50;;;4.18;;
12437;SDS011;6283;51.330;12.374;2022-07-01T11:27:26;4.18;;;3.88;;
12437;SDS011;6283;51.330;12.374;2022-07-01T11:29:53;5.93;;;5.28;;
12437;SDS011;6283;51.330;12.374;2022-07-01T11:32:27;4.23;;;3.90;;
12437;SDS011;6283;51.330;12.374;2022-07-01T11:34:54;4.05;;;3.72;;
12437;SDS011;6283;51.330;12.374;2022-07-01T11:37:20;4.00;;;3.70;;
12437;SDS011;6283;51.330;12.374;2022-07-01T11:40:09;4.03;;;3.63;;
12437;SDS011;6283;51.330;12.374;2022-07-01T11:42:36;4.60;;;4.20;;
12437;SDS011;6283;51.330;12.374;2022-07-01T11:45:03;3.72;;;3.45;;
12437;SDS011;6283;51.330;12.374;2022-07-01T11:47:29;3.92;;;3.63;;
12437;SDS011;6283;51.330;12.374;2022-07-01T11:49:55;3.72;;;3.42;;
12437;SDS011;6283;51.330;12.374;2022-07-01T11:52:22;3.75;;;3.40;;
12437;SDS011;6283;51.330;12.374;2022-07-01T11:54:49;3.60;;;3.30;;
12437;SDS011;6283;51.330;12.374;2022-07-01T11:57:17;3.42;;;3.22;;
12437;SDS011;6283;51.330;12.374;2022-07-01T11:59:45;3.03;;;2.83;;
12437;SDS011;6283;51.330;12.374;2022-07-01T12:02:13;4.13;;;3.65;;
12437;SDS011;6283;51.330;12.374;2022-07-01T12:04:40;3.90;;;3.55;;
12437;SDS011;6283;51.330;12.374;2022-07-01T12:07:06;3.47;;;3.28;;
12437;SDS011;6283;51.330;12.374;2022-07-01T12:09:33;4.00;;;3.70;;
12437;SDS011;6283;51.330;12.374;2022-07-01T12:11:59;4.18;;;3.88;;
12437;SDS011;6283;51.330;12.374;2022-07-01T12:14:26;4.68;;;4.28;;
12437;SDS011;6283;51.330;12.374;2022-07-01T12:17:05;5.55;;;5.07;;
12437;SDS011;6283;51.330;12.374;2022-07-01T12:19:39;5.05;;;4.65;;
12437;SDS011;6283;51.330;12.374;2022-07-01T12:22:06;4.82;;;4.43;;
12437;SDS011;6283;51.330;12.374;2022-07-01T12:24:34;5.20;;;4.70;;
12437;SDS011;6283;51.330;12.374;2022-07-01T12:29:26;5.75;;;5.05;;
12437;SDS011;6283;51.330;12.374;2022-07-01T12:32:03;5.28;;;4.78;;
12437;SDS011;6283;51.330;12.374;2022-07-01T12:34:37;5.93;;;4.70;;
12437;SDS011;6283;51.330;12.374;2022-07-01T12:37:07;4.30;;;3.90;;
12437;SDS011;6283;51.330;12.374;2022-07-01T12:39:56;4.10;;;3.80;;
12437;SDS011;6283;51.330;12.374;2022-07-01T12:42:32;3.70;;;3.40;;
12437;SDS011;6283;51.330;12.374;2022-07-01T12:45:04;4.40;;;4.00;;
12437;SDS011;6283;51.330;12.374;2022-07-01T12:50:34;5.47;;;4.28;;
12437;SDS011;6283;51.330;12.374;2022-07-01T12:53:06;3.80;;;3.50;;
12437;SDS011;6283;51.330;12.374;2022-07-01T12:58:09;2.20;;;2.10;;
12437;SDS011;6283;51.330;12.374;2022-07-01T13:00:43;2.50;;;2.38;;
12437;SDS011;6283;51.330;12.374;2022-07-01T13:03:11;2.38;;;1.67;;
12437;SDS011;6283;51.330;12.374;2022-07-01T13:05:37;1.63;;;1.52;;
12437;SDS011;6283;51.330;12.374;2022-07-01T13:08:05;1.52;;;1.42;;
12437;SDS011;6283;51.330;12.374;2022-07-01T13:10:31;1.30;;;1.27;;
12437;SDS011;6283;51.330;12.374;2022-07-01T13:12:58;1.40;;;1.30;;
12437;SDS011;6283;51.330;12.374;2022-07-01T13:15:24;1.55;;;1.45;;
12437;SDS011;6283;51.330;12.374;2022-07-01T13:17:49;1.55;;;1.45;;
12437;SDS011;6283;51.330;12.374;2022-07-01T13:20:16;1.60;;;1.50;;
12437;SDS011;6283;51.330;12.374;2022-07-01T13:22:42;2.08;;;1.88;;
12437;SDS011;6283;51.330;12.374;2022-07-01T13:25:09;1.88;;;1.77;;
12437;SDS011;6283;51.330;12.374;2022-07-01T13:27:35;1.60;;;1.50;;
12437;SDS011;6283;51.330;12.374;2022-07-01T13:30:02;2.03;;;1.90;;
12437;SDS011;6283;51.330;12.374;2022-07-01T13:32:29;2.30;;;2.10;;
12437;SDS011;6283;51.330;12.374;2022-07-01T13:34:55;2.08;;;1.98;;
12437;SDS011;6283;51.330;12.374;2022-07-01T13:37:20;2.63;;;2.40;;
12437;SDS011;6283;51.330;12.374;2022-07-01T13:39:46;2.40;;;2.20;;
12437;SDS011;6283;51.330;12.374;2022-07-01T13:42:12;2.70;;;2.50;;
12437;SDS011;6283;51.330;12.374;2022-07-01T13:44:38;2.80;;;2.60;;
12437;SDS011;6283;51.330;12.374;2022-07-01T13:47:03;2.80;;;2.60;;
12437;SDS011;6283;51.330;12.374;2022-07-01T13:49:34;3.15;;;2.85;;
12437;SDS011;6283;51.330;12.374;2022-07-01T13:52:00;3.45;;;3.15;;
12437;SDS011;6283;51.330;12.374;2022-07-01T13:54:26;3.65;;;3.35;;
12437;SDS011;6283;51.330;12.374;2022-07-01T13:56:51;3.85;;;3.45;;
12437;SDS011;6283;51.330;12.374;2022-07-01T13:59:17;3.83;;;3.53;;
12437;SDS011;6283;51.330;12.374;2022-07-01T14:01:43;4.25;;;3.95;;
12437;SDS011;6283;51.330;12.374;2022-07-01T14:04:08;4.38;;;3.97;;
12437;SDS011;6283;51.330;12.374;2022-07-01T14:06:35;5.60;;;4.40;;
12437;SDS011;6283;51.330;12.374;2022-07-01T14:09:00;4.60;;;4.10;;
12437;SDS011;6283;51.330;12.374;2022-07-01T14:11:26;5.72;;;4.78;;
12437;SDS011;6283;51.330;12.374;2022-07-01T14:13:51;5.45;;;4.57;;
12437;SDS011;6283;51.330;12.374;2022-07-01T14:16:17;5.43;;;4.78;;
12437;SDS011;6283;51.330;12.374;2022-07-01T14:18:43;6.15;;;5.43;;
12437;SDS011;6283;51.330;12.374;2022-07-01T14:21:09;5.47;;;4.97;;
12437;SDS011;6283;51.330;12.374;2022-07-01T14:23:35;6.10;;;4.82;;
12437;SDS011;6283;51.330;12.374;2022-07-01T14:26:01;5.63;;;5.13;;
12437;SDS011;6283;51.330;12.374;2022-07-01T14:28:27;7.15;;;4.93;;
12437;SDS011;6283;51.330;12.374;2022-07-01T14:30:53;6.18;;;4.75;;
12437;SDS011;6283;51.330;12.374;2022-07-01T14:33:19;5.13;;;4.72;;
12437;SDS011;6283;51.330;12.374;2022-07-01T14:35:46;5.80;;;4.95;;
12437;SDS011;6283;51.330;12.374;2022-07-01T14:38:12;5.85;;;5.32;;
12437;SDS011;6283;51.330;12.374;2022-07-01T14:40:39;7.13;;;5.10;;
12437;SDS011;6283;51.330;12.374;2022-07-01T14:43:05;6.78;;;4.68;;
12437;SDS011;6283;51.330;12.374;2022-07-01T14:45:31;6.35;;;5.22;;
12437;SDS011;6283;51.330;12.374;2022-07-01T14:47:57;5.30;;;4.80;;
12437;SDS011;6283;51.330;12.374;2022-07-01T14:50:23;5.47;;;4.93;;
12437;SDS011;6283;51.330;12.374;2022-07-01T14:52:48;7.05;;;5.10;;
12437;SDS011;6283;51.330;12.374;2022-07-01T14:55:14;5.32;;;4.90;;
12437;SDS011;6283;51.330;12.374;2022-07-01T14:57:40;5.40;;;4.90;;
12437;SDS011;6283;51.330;12.374;2022-07-01T15:00:06;5.75;;;5.15;;
12437;SDS011;6283;51.330;12.374;2022-07-01T15:02:33;5.72;;;5.07;;
12437;SDS011;6283;51.330;12.374;2022-07-01T15:04:59;8.02;;;5.60;;
12437;SDS011;6283;51.330;12.374;2022-07-01T15:07:25;5.85;;;5.35;;
12437;SDS011;6283;51.330;12.374;2022-07-01T15:09:51;6.40;;;5.80;;
12437;SDS011;6283;51.330;12.374;2022-07-01T15:12:17;8.95;;;6.18;;
12437;SDS011;6283;51.330;12.374;2022-07-01T15:14:45;7.32;;;6.63;;
12437;SDS011;6283;51.330;12.374;2022-07-01T15:17:11;7.22;;;6.50;;
12437;SDS011;6283;51.330;12.374;2022-07-01T15:19:37;7.53;;;6.40;;
12437;SDS011;6283;51.330;12.374;2022-07-01T15:22:05;7.93;;;6.75;;
12437;SDS011;6283;51.330;12.374;2022-07-01T15:24:34;7.82;;;6.68;;